GLO1767 SBCF-SBBR
Flight info
| Callsign | GLO1767 |
|---|---|
| Flight time | 1h 0m |
| Altitude | 30000 |
| Route | GIMPO UZ33 OPGOL |
| Aircraft | B738/M-SDE2E3FGHIRWXY/LB1 |
Departure
| Time | 2026-05-04 11:05 |
|---|---|
| Airport | Tancredo Neves International Airport (SBCF) |
Arrival
| Time | 2026-05-04 12:06 |
|---|---|
| Airport | Presidente Juscelino Kubitschek International Airport (SBBR) |
| Time | Latitude | Longitude | Altitude | Speed | Heading |
|---|---|---|---|---|---|
| 2026-05-04 10:26 | -19.63351 | -43.96371 | 2752 ft | 0 kts | 39° |
| 2026-05-04 10:54 | -19.63367 | -43.96383 | 2751 ft | 4 kts | 18° |
| 2026-05-04 10:54 | -19.63390 | -43.96384 | 2751 ft | 4 kts | 323° |
| 2026-05-04 10:56 | -19.63399 | -43.96374 | 2751 ft | 0 kts | 297° |
| 2026-05-04 10:58 | -19.63396 | -43.96382 | 2753 ft | 5 kts | 298° |
| 2026-05-04 10:58 | -19.63351 | -43.96442 | 2751 ft | 16 kts | 316° |
| 2026-05-04 10:58 | -19.63257 | -43.96529 | 2753 ft | 18 kts | 320° |
| 2026-05-04 10:58 | -19.63200 | -43.96630 | 2751 ft | 18 kts | 241° |
| 2026-05-04 10:59 | -19.63260 | -43.96735 | 2751 ft | 17 kts | 277° |
| 2026-05-04 10:59 | -19.63181 | -43.96823 | 2752 ft | 16 kts | 319° |
| 2026-05-04 10:59 | -19.63092 | -43.96905 | 2752 ft | 18 kts | 319° |
| 2026-05-04 10:59 | -19.62992 | -43.96998 | 2752 ft | 20 kts | 318° |
| 2026-05-04 11:00 | -19.62884 | -43.97100 | 2752 ft | 22 kts | 318° |
| 2026-05-04 11:01 | -19.62268 | -43.97771 | 2752 ft | 0 kts | 220° |
| 2026-05-04 11:02 | -19.62285 | -43.97779 | 2754 ft | 8 kts | 198° |
| 2026-05-04 11:02 | -19.62379 | -43.97792 | 2751 ft | 13 kts | 156° |
| 2026-05-04 11:05 | -19.73109 | -43.97425 | 9396 ft | 248 kts | 306° |
| 2026-05-04 11:06 | -19.71881 | -43.98661 | 10130 ft | 243 kts | 333° |
| 2026-05-04 11:06 | -19.70329 | -43.99384 | 10869 ft | 245 kts | 342° |
| 2026-05-04 11:06 | -19.68709 | -43.99986 | 11542 ft | 249 kts | 342° |
| 2026-05-04 11:06 | -19.67058 | -44.00588 | 12234 ft | 253 kts | 342° |
| 2026-05-04 11:08 | -19.54922 | -44.05182 | 16677 ft | 283 kts | 339° |
| 2026-05-04 11:10 | -19.38727 | -44.10929 | 17960 ft | 401 kts | 339° |
| 2026-05-04 11:12 | -19.21792 | -44.20807 | 21378 ft | 407 kts | 313° |
| 2026-05-04 11:12 | -19.19770 | -44.22854 | 21792 ft | 409 kts | 314° |
| 2026-05-04 11:12 | -19.17691 | -44.24926 | 22189 ft | 411 kts | 314° |
| 2026-05-04 11:12 | -19.15595 | -44.27000 | 22598 ft | 413 kts | 314° |
| 2026-05-04 11:13 | -19.13490 | -44.29078 | 23015 ft | 414 kts | 314° |
| 2026-05-04 11:13 | -19.11376 | -44.31164 | 23391 ft | 416 kts | 314° |
| 2026-05-04 11:13 | -19.09252 | -44.33262 | 23744 ft | 419 kts | 314° |
| 2026-05-04 11:13 | -19.07118 | -44.35370 | 24097 ft | 420 kts | 314° |
| 2026-05-04 11:14 | -19.04980 | -44.37483 | 24451 ft | 422 kts | 313° |
| 2026-05-04 11:14 | -19.02830 | -44.39607 | 24804 ft | 423 kts | 313° |
| 2026-05-04 11:14 | -19.00673 | -44.41737 | 25141 ft | 425 kts | 313° |
| 2026-05-04 11:16 | -18.85460 | -44.56985 | 27208 ft | 437 kts | 313° |
| 2026-05-04 11:16 | -18.83255 | -44.59196 | 27521 ft | 437 kts | 312° |
| 2026-05-04 11:16 | -18.81053 | -44.61401 | 27919 ft | 436 kts | 312° |
| 2026-05-04 11:17 | -18.78856 | -44.63600 | 28355 ft | 433 kts | 312° |
| 2026-05-04 11:17 | -18.76676 | -44.65782 | 28781 ft | 431 kts | 312° |
| 2026-05-04 11:19 | -18.61525 | -44.80927 | 30267 ft | 427 kts | 312° |
| 2026-05-04 11:19 | -18.59364 | -44.83086 | 30270 ft | 428 kts | 312° |
| 2026-05-04 11:19 | -18.55020 | -44.87421 | 30256 ft | 431 kts | 312° |
| 2026-05-04 11:20 | -18.50660 | -44.91767 | 30257 ft | 432 kts | 312° |
| 2026-05-04 11:20 | -18.46290 | -44.96119 | 30249 ft | 432 kts | 312° |
| 2026-05-04 11:22 | -18.28933 | -45.13376 | 30243 ft | 427 kts | 312° |
| 2026-05-04 11:23 | -18.24618 | -45.17659 | 30254 ft | 426 kts | 312° |
| 2026-05-04 11:25 | -18.09474 | -45.32669 | 30254 ft | 428 kts | 311° |
| 2026-05-04 11:25 | -18.05134 | -45.36964 | 30257 ft | 428 kts | 311° |
| 2026-05-04 11:27 | -17.85525 | -45.56321 | 30256 ft | 433 kts | 312° |
| 2026-05-04 11:28 | -17.81137 | -45.60646 | 30251 ft | 433 kts | 312° |
| 2026-05-04 11:28 | -17.76739 | -45.64977 | 30240 ft | 433 kts | 312° |
| 2026-05-04 11:29 | -17.72338 | -45.69307 | 30242 ft | 434 kts | 312° |
| 2026-05-04 11:29 | -17.67942 | -45.73630 | 30239 ft | 433 kts | 312° |
| 2026-05-04 11:33 | -17.37244 | -46.03737 | 30236 ft | 432 kts | 312° |
| 2026-05-04 11:33 | -17.32851 | -46.08036 | 30242 ft | 433 kts | 312° |
| 2026-05-04 11:34 | -17.29184 | -46.11620 | 30236 ft | 434 kts | 312° |
| 2026-05-04 11:34 | -17.24763 | -46.15939 | 30234 ft | 435 kts | 312° |
| 2026-05-04 11:35 | -17.20333 | -46.20266 | 30239 ft | 436 kts | 313° |
| 2026-05-04 11:35 | -17.15891 | -46.24599 | 30242 ft | 436 kts | 313° |
| 2026-05-04 11:36 | -17.11452 | -46.28927 | 30245 ft | 437 kts | 313° |
| 2026-05-04 11:36 | -17.06996 | -46.33270 | 30245 ft | 438 kts | 313° |
| 2026-05-04 11:37 | -17.02539 | -46.37609 | 30235 ft | 438 kts | 313° |
| 2026-05-04 11:37 | -16.98095 | -46.41935 | 30239 ft | 439 kts | 313° |
| 2026-05-04 11:38 | -16.93626 | -46.46281 | 30242 ft | 439 kts | 313° |
| 2026-05-04 11:38 | -16.89148 | -46.50633 | 30243 ft | 439 kts | 313° |
| 2026-05-04 11:39 | -16.84667 | -46.54985 | 30241 ft | 440 kts | 313° |
| 2026-05-04 11:40 | -16.74015 | -46.70249 | 30242 ft | 435 kts | 300° |
| 2026-05-04 11:41 | -16.72338 | -46.72878 | 30244 ft | 435 kts | 300° |
| 2026-05-04 11:41 | -16.68948 | -46.78116 | 30230 ft | 436 kts | 301° |
| 2026-05-04 11:42 | -16.65558 | -46.83319 | 30229 ft | 436 kts | 301° |
| 2026-05-04 11:42 | -16.62146 | -46.88549 | 30228 ft | 435 kts | 301° |
| 2026-05-04 11:42 | -16.60463 | -46.91127 | 30209 ft | 424 kts | 301° |
| 2026-05-04 11:43 | -16.58815 | -46.93651 | 30216 ft | 419 kts | 301° |
| 2026-05-04 11:43 | -16.55539 | -46.98674 | 30212 ft | 420 kts | 301° |
| 2026-05-04 11:43 | -16.53892 | -47.01201 | 29826 ft | 420 kts | 301° |
| 2026-05-04 11:44 | -16.52264 | -47.03693 | 29422 ft | 415 kts | 301° |
| 2026-05-04 11:44 | -16.50647 | -47.06166 | 28995 ft | 410 kts | 301° |
| 2026-05-04 11:44 | -16.49047 | -47.08615 | 28534 ft | 407 kts | 301° |
| 2026-05-04 11:44 | -16.47463 | -47.11037 | 28091 ft | 404 kts | 301° |
| 2026-05-04 11:45 | -16.45888 | -47.13446 | 27635 ft | 401 kts | 301° |
| 2026-05-04 11:45 | -16.44325 | -47.15838 | 27189 ft | 398 kts | 301° |
| 2026-05-04 11:45 | -16.42775 | -47.18208 | 26741 ft | 395 kts | 301° |
| 2026-05-04 11:45 | -16.41236 | -47.20559 | 26297 ft | 392 kts | 302° |
| 2026-05-04 11:46 | -16.39700 | -47.22904 | 25856 ft | 389 kts | 302° |
| 2026-05-04 11:46 | -16.38028 | -47.25106 | 25388 ft | 390 kts | 314° |
| 2026-05-04 11:46 | -16.35949 | -47.26917 | 24998 ft | 388 kts | 319° |
| 2026-05-04 11:46 | -16.33813 | -47.28631 | 24549 ft | 386 kts | 320° |
| 2026-05-04 11:47 | -16.31688 | -47.30333 | 24117 ft | 384 kts | 320° |
| 2026-05-04 11:47 | -16.29584 | -47.32038 | 23677 ft | 382 kts | 320° |
| 2026-05-04 11:47 | -16.27530 | -47.33724 | 23248 ft | 379 kts | 319° |
| 2026-05-04 11:47 | -16.25474 | -47.35428 | 22821 ft | 378 kts | 319° |
| 2026-05-04 11:48 | -16.23428 | -47.37132 | 22400 ft | 375 kts | 319° |
| 2026-05-04 11:48 | -16.21390 | -47.38834 | 21958 ft | 373 kts | 319° |
| 2026-05-04 11:48 | -16.19375 | -47.40517 | 21535 ft | 371 kts | 319° |
| 2026-05-04 11:48 | -16.17368 | -47.42193 | 21116 ft | 369 kts | 319° |
| 2026-05-04 11:49 | -16.15371 | -47.43861 | 20695 ft | 367 kts | 319° |
| 2026-05-04 11:49 | -16.13384 | -47.45520 | 20273 ft | 365 kts | 319° |
| 2026-05-04 11:49 | -16.11406 | -47.47170 | 19854 ft | 364 kts | 320° |
| 2026-05-04 11:49 | -16.09437 | -47.48814 | 19429 ft | 362 kts | 320° |
| 2026-05-04 11:50 | -16.07478 | -47.50447 | 19015 ft | 360 kts | 320° |
| 2026-05-04 11:50 | -16.05527 | -47.52072 | 18594 ft | 358 kts | 320° |
| 2026-05-04 11:50 | -16.03593 | -47.53685 | 18181 ft | 356 kts | 320° |
| 2026-05-04 11:50 | -16.01657 | -47.55298 | 17757 ft | 355 kts | 320° |
| 2026-05-04 11:51 | -15.99737 | -47.56896 | 17352 ft | 353 kts | 320° |
| 2026-05-04 11:51 | -15.97826 | -47.58489 | 16939 ft | 351 kts | 320° |
| 2026-05-04 11:51 | -15.95946 | -47.60089 | 16535 ft | 349 kts | 316° |
| 2026-05-04 11:51 | -15.94496 | -47.62083 | 16120 ft | 345 kts | 296° |
| 2026-05-04 11:52 | -15.93491 | -47.64334 | 15745 ft | 342 kts | 294° |
| 2026-05-04 11:52 | -15.92487 | -47.66567 | 15335 ft | 341 kts | 295° |
| 2026-05-04 11:52 | -15.91471 | -47.68753 | 14942 ft | 339 kts | 296° |
| 2026-05-04 11:52 | -15.90435 | -47.70946 | 14548 ft | 339 kts | 297° |
| 2026-05-04 11:53 | -15.89392 | -47.73140 | 14137 ft | 337 kts | 297° |
| 2026-05-04 11:53 | -15.88359 | -47.75312 | 13747 ft | 335 kts | 297° |
| 2026-05-04 11:53 | -15.87327 | -47.77486 | 13345 ft | 334 kts | 297° |
| 2026-05-04 11:53 | -15.86304 | -47.79635 | 12963 ft | 332 kts | 297° |
| 2026-05-04 11:55 | -15.79549 | -47.93819 | 11513 ft | 286 kts | 298° |
| 2026-05-04 11:55 | -15.78671 | -47.95664 | 11392 ft | 278 kts | 298° |
| 2026-05-04 11:56 | -15.77822 | -47.97441 | 11279 ft | 271 kts | 298° |
| 2026-05-04 11:56 | -15.77251 | -47.99284 | 11024 ft | 272 kts | 276° |
| 2026-05-04 11:56 | -15.77342 | -48.01216 | 10777 ft | 273 kts | 265° |
| 2026-05-04 11:56 | -15.77545 | -48.03188 | 10415 ft | 277 kts | 266° |
| 2026-05-04 11:57 | -15.77700 | -48.05174 | 10079 ft | 274 kts | 267° |
| 2026-05-04 11:57 | -15.77833 | -48.07161 | 9510 ft | 277 kts | 268° |
| 2026-05-04 11:57 | -15.77959 | -48.09133 | 9084 ft | 269 kts | 268° |
| 2026-05-04 11:57 | -15.78080 | -48.11037 | 8749 ft | 258 kts | 267° |
| 2026-05-04 11:58 | -15.78196 | -48.12855 | 8482 ft | 247 kts | 268° |
| 2026-05-04 11:58 | -15.78306 | -48.14589 | 8241 ft | 236 kts | 268° |
| 2026-05-04 11:58 | -15.78422 | -48.16268 | 8027 ft | 230 kts | 264° |
| 2026-05-04 11:58 | -15.78949 | -48.17775 | 7736 ft | 217 kts | 229° |
| 2026-05-04 11:59 | -15.80159 | -48.18585 | 7554 ft | 207 kts | 190° |
| 2026-05-04 11:59 | -15.81578 | -48.18665 | 7319 ft | 203 kts | 165° |
| 2026-05-04 11:59 | -15.82847 | -48.18167 | 7068 ft | 192 kts | 142° |
| 2026-05-04 11:59 | -15.83784 | -48.17273 | 6854 ft | 176 kts | 126° |
| 2026-05-04 12:00 | -15.84568 | -48.16351 | 6635 ft | 166 kts | 127° |
| 2026-05-04 12:00 | -15.85337 | -48.15507 | 6420 ft | 155 kts | 128° |
| 2026-05-04 12:00 | -15.86053 | -48.14720 | 6259 ft | 149 kts | 127° |
| 2026-05-04 12:00 | -15.86758 | -48.13933 | 6088 ft | 149 kts | 127° |
| 2026-05-04 12:01 | -15.87467 | -48.13145 | 5912 ft | 149 kts | 127° |
| 2026-05-04 12:01 | -15.88170 | -48.12364 | 5782 ft | 145 kts | 127° |
| 2026-05-04 12:02 | -15.88846 | -48.06170 | 5294 ft | 154 kts | 87° |
| 2026-05-04 12:03 | -15.88778 | -48.05063 | 5250 ft | 154 kts | 87° |
| 2026-05-04 12:03 | -15.88706 | -48.03948 | 5210 ft | 154 kts | 87° |
| 2026-05-04 12:03 | -15.88634 | -48.02840 | 5115 ft | 154 kts | 87° |
| 2026-05-04 12:03 | -15.88564 | -48.01731 | 4977 ft | 155 kts | 87° |
| 2026-05-04 12:04 | -15.88492 | -48.00624 | 4780 ft | 153 kts | 87° |
| 2026-05-04 12:04 | -15.88421 | -47.99524 | 4580 ft | 152 kts | 87° |
| 2026-05-04 12:04 | -15.88351 | -47.98433 | 4369 ft | 151 kts | 87° |
| 2026-05-04 12:04 | -15.88280 | -47.97348 | 4178 ft | 151 kts | 87° |
| 2026-05-04 12:05 | -15.88211 | -47.96253 | 3975 ft | 151 kts | 87° |
| 2026-05-04 12:05 | -15.88141 | -47.95160 | 3772 ft | 152 kts | 87° |
| 2026-05-04 12:05 | -15.88073 | -47.94067 | 3576 ft | 152 kts | 87° |
| 2026-05-04 12:05 | -15.88002 | -47.93015 | 3482 ft | 135 kts | 86° |
| 2026-05-04 12:06 | -15.87956 | -47.92257 | 3476 ft | 74 kts | 86° |
| 2026-05-04 12:06 | -15.87904 | -47.91881 | 3466 ft | 41 kts | 70° |
| 2026-05-04 12:06 | -15.87818 | -47.91714 | 3461 ft | 12 kts | 56° |
| 2026-05-04 12:06 | -15.87781 | -47.91659 | 3460 ft | 11 kts | 56° |
| 2026-05-04 12:07 | -15.87735 | -47.91588 | 3459 ft | 7 kts | 54° |
| 2026-05-04 12:07 | -15.87700 | -47.91559 | 3459 ft | 7 kts | 25° |
| 2026-05-04 12:07 | -15.87640 | -47.91553 | 3459 ft | 10 kts | 357° |
| 2026-05-04 12:07 | -15.87556 | -47.91559 | 3460 ft | 15 kts | 355° |
| 2026-05-04 12:08 | -15.87443 | -47.91567 | 3463 ft | 17 kts | 356° |
| 2026-05-04 12:08 | -15.87311 | -47.91575 | 3463 ft | 21 kts | 356° |
| 2026-05-04 12:08 | -15.87162 | -47.91585 | 3463 ft | 21 kts | 356° |
| 2026-05-04 12:08 | -15.87058 | -47.91629 | 3464 ft | 16 kts | 282° |
| 2026-05-04 12:09 | -15.87060 | -47.91741 | 3464 ft | 14 kts | 266° |
| 2026-05-04 12:09 | -15.87066 | -47.91837 | 3464 ft | 12 kts | 266° |
| 2026-05-04 12:09 | -15.87083 | -47.91906 | 3464 ft | 9 kts | 202° |
| 2026-05-04 12:09 | -15.87120 | -47.91906 | 3464 ft | 3 kts | 177° |
| 2026-05-04 12:10 | -15.87128 | -47.91906 | 3464 ft | 0 kts | 177° |